EST,Max TemperatureF,Mean TemperatureF,Min TemperatureF,Max Dew PointF,MeanDew PointF,Min DewpointF,Max Humidity, Mean Humidity, Min Humidity, Max Sea Level PressureIn, Mean Sea Level PressureIn, Min Sea Level PressureIn, Max VisibilityMiles, Mean VisibilityMiles, Min VisibilityMiles, Max Wind SpeedMPH, Mean Wind SpeedMPH, Max Gust SpeedMPH,PrecipitationIn, CloudCover, Events, WindDirDegrees
2001-12-1,66,54,39,58,50,38,94,76,42,30.19,30.01,29.93,10,8,5,15,8,18,0.00,3,,243
2001-12-2,50,40,30,39,34,28,96,82,54,30.34,30.27,30.19,10,9,4,7,1,,0.00,0,,298
2001-12-3,54,40,26,37,30,24,92,71,41,30.40,30.32,30.25,10,9,6,13,3,,0.01,0,,229
2001-12-4,59,44,28,39,34,27,96,74,44,30.37,30.32,30.28,10,10,6,8,2,,0.00,1,Rain,251
2001-12-5,64,52,39,47,43,38,97,74,51,30.35,30.27,30.18,10,10,8,12,4,,0.01,2,Rain,250
2001-12-6,68,55,42,44,39,37,89,51,36,30.17,30.02,29.95,10,10,9,12,5,18,0.00,2,Rain,260
2001-12-7,57,44,30,47,39,27,100,76,41,30.15,30.00,29.94,10,9,0,12,4,18,0.06,3,Fog-Rain,272
2001-12-8,41,34,28,34,29,24,96,83,51,30.25,30.12,29.98,10,7,1,10,4,,0.07,4,Rain-Snow,69
2001-12-9,37,32,25,31,29,24,96,88,73,30.39,30.10,29.93,10,8,2,15,6,23,0.47,6,Rain-Snow,8
2001-12-10,43,31,19,36,27,18,100,86,60,30.47,30.39,30.31,10,9,1,7,1,,0.06,4,Rain,168
2001-12-11,48,38,28,37,33,26,97,84,50,30.45,30.34,30.28,10,9,4,13,1,,0.00,2,,338
2001-12-12,45,36,26,34,30,23,92,77,63,30.57,30.48,30.33,10,9,5,12,4,18,0.01,4,,66
2001-12-13,51,45,39,49,43,34,100,93,79,30.30,30.04,29.92,10,4,0,10,5,,0.01,8,Fog,340
2001-12-14,57,48,42,56,47,42,100,96,87,30.02,29.89,29.68,9,3,0,14,2,,0.42,7,Fog-Rain-Thunderstorm,110
2001-12-15,57,42,27,55,31,21,94,67,58,30.43,30.09,29.68,10,10,6,21,12,28,0.00,4,,324
2001-12-16,39,32,25,21,17,14,85,56,36,30.51,30.43,30.36,10,10,10,10,4,,0.00,0,,347
2001-12-17,46,39,32,44,31,18,100,76,54,30.34,29.90,29.48,10,6,2,8,3,,0.26,7,Rain-Thunderstorm,115
2001-12-18,46,42,37,45,37,28,100,83,58,29.69,29.39,29.24,10,7,2,17,5,28,0.57,7,Rain,333
2001-12-19,46,38,30,32,30,28,93,71,51,29.90,29.82,29.72,10,9,5,10,5,,0.00,3,,255
2001-12-20,44,38,32,35,27,16,96,70,38,29.79,29.72,29.66,10,8,4,17,5,26,0.00,6,Snow,269
2001-12-21,39,34,28,25,20,15,66,54,40,30.22,29.97,29.72,10,10,10,18,12,26,0.00,5,,317
2001-12-22,37,29,21,19,17,15,85,64,42,30.39,30.33,30.23,10,10,10,13,4,18,0.00,0,,311
2001-12-23,44,30,17,38,24,15,93,73,43,30.31,30.13,29.86,10,10,7,12,2,,0.06,1,Rain,175
2001-12-24,44,36,28,43,36,20,100,85,55,29.85,29.75,29.66,10,7,2,9,4,17,0.65,6,Rain,285
2001-12-25,35,28,21,23,20,17,92,71,48,30.03,29.98,29.86,10,10,10,9,4,,0.00,0,,251
2001-12-26,36,30,23,21,16,11,85,61,41,30.00,29.81,29.66,10,10,10,10,4,,0.00,2,,254
2001-12-27,30,24,19,15,11,9,74,56,45,29.73,29.66,29.61,10,10,9,17,7,23,0.00,2,,257
2001-12-28,37,27,17,23,16,11,88,60,44,29.75,29.68,29.59,10,10,10,14,8,23,0.00,3,,242
2001-12-29,34,28,21,23,16,10,69,58,47,29.81,29.74,29.69,10,10,10,13,6,21,0.00,2,,254
2001-12-30,30,24,19,11,9,5,65,51,39,29.95,29.88,29.82,10,10,10,20,10,25,0.00,0,,261
2001-12-31,28,23,16,9,7,5,74,52,40,30.05,30.00,29.96,10,10,10,16,8,23,0.00,0,,254